Time;durP1;ratioP1;P1;durP2;ratioP2;P2;SDS_P1;SDS_P2;PMS_P1;PMS_P2;Temp;Humidity;BMP_temperature;BMP_pressure;BME280_temperature;BME280_humidity;BME280_pressure;Samples;Min_cycle;Max_cycle;Signal;HPM_P1;HPM_P2
2022/08/08 00:00:37;;;;;;;;;;;;;;;;;;;;;
2022/08/08 01:35:52;;;;;;;1.75;1.65;;;17.10;82.30;;;;;;1456738;23;20334;-84
2022/08/08 01:39:07;;;;;;;1.77;1.67;;;17.10;82.60;;;;;;4921323;29;20062;-86
2022/08/08 01:49:32;;;;;;;1.75;1.63;;;17.00;82.90;;;;;;4936922;29;20392;-85
2022/08/08 01:53:02;;;;;;;2.15;1.90;;;16.90;83.00;;;;;;4895082;29;20032;-85
2022/08/08 01:56:28;;;;;;;;;;;;;;;;;;;;;
2022/08/08 01:59:41;;;;;;;2.95;1.67;;;16.80;84.40;;;;;;4900675;29;20362;-85
2022/08/08 02:02:49;;;;;;;2.20;2.00;;;16.70;84.30;;;;;;4911372;29;20120;-85
2022/08/08 02:09:32;;;;;;;2.10;2.00;;;16.60;85.40;;;;;;4920390;29;20139;-84
2022/08/08 02:30:13;;;;;;;2.50;2.25;;;16.30;90.60;;;;;;4880406;29;20029;-86
2022/08/08 03:57:23;;;;;;;5.13;3.28;;;15.30;98.00;;;;;;4881985;29;20056;-85
2022/08/08 04:03:44;;;;;;;5.18;3.40;;;15.20;99.00;;;;;;4880055;29;20037;-85
2022/08/08 04:10:11;;;;;;;3.95;3.55;;;15.20;99.80;;;;;;4898470;29;20052;-85
2022/08/08 04:12:46;;;;;;;3.60;3.30;;;15.20;99.90;;;;;;4897514;29;20052;-89
2022/08/08 04:15:15;;;;;;;3.63;3.33;;;15.20;99.90;;;;;;4889400;29;20031;-85
2022/08/08 04:18:56;;;;;;;3.00;2.80;;;15.20;99.90;;;;;;4935206;29;20020;-85
2022/08/08 04:24:27;;;;;;;3.08;2.50;;;15.40;99.60;;;;;;4926156;29;20036;-84
2022/08/08 04:27:01;;;;;;;3.83;3.33;;;15.40;99.00;;;;;;4918707;29;20080;-84
2022/08/08 04:29:38;;;;;;;3.60;3.30;;;15.40;98.70;;;;;;4920284;29;20063;-83
2022/08/08 04:32:15;;;;;;;5.03;3.30;;;15.50;98.20;;;;;;4951491;29;20044;-84
2022/08/08 04:35:02;;;;;;;3.33;3.03;;;15.50;98.20;;;;;;4936102;29;20028;-85
2022/08/08 04:37:33;;;;;;;3.50;3.13;;;15.50;98.40;;;;;;4937851;28;20052;-84
2022/08/08 04:40:21;;;;;;;3.28;2.95;;;15.50;98.60;;;;;;4923877;29;20024;-84
2022/08/08 04:42:55;;;;;;;4.53;3.22;;;15.50;98.70;;;;;;4897288;29;20128;-84
2022/08/08 04:45:27;;;;;;;3.63;3.15;;;15.50;98.70;;;;;;4939594;29;20065;-85
2022/08/08 04:48:02;;;;;;;4.20;3.22;;;15.50;98.80;;;;;;4938613;29;20052;-81
2022/08/08 04:51:01;;;;;;;4.70;3.28;;;15.50;98.70;;;;;;4942713;29;20090;-85
2022/08/08 04:53:29;;;;;;;4.00;3.60;;;15.60;98.80;;;;;;4952369;29;20027;-84
2022/08/08 04:56:08;;;;;;;;;;;;;;;;;;;;;
2022/08/08 04:58:39;;;;;;;4.25;3.85;;;15.60;99.10;;;;;;4941359;29;20106;-83
2022/08/08 05:01:08;;;;;;;4.47;3.47;;;15.60;99.20;;;;;;4924672;29;20114;-84
2022/08/08 05:03:37;;;;;;;3.78;3.40;;;15.60;99.50;;;;;;4941717;29;20024;-84
2022/08/08 05:06:04;;;;;;;3.42;3.13;;;15.60;99.60;;;;;;4920590;29;20453;-84
2022/08/08 05:08:30;;;;;;;2.90;2.70;;;15.70;99.40;;;;;;4905935;29;20139;-85
2022/08/08 05:10:55;;;;;;;3.60;3.30;;;15.70;99.40;;;;;;4923593;29;20072;-84
2022/08/08 05:13:27;;;;;;;3.13;2.83;;;15.60;99.30;;;;;;4905647;29;20056;-85
2022/08/08 05:15:54;;;;;;;3.50;3.20;;;15.60;99.30;;;;;;4923380;29;20023;-84
2022/08/08 05:18:20;;;;;;;4.10;3.67;;;15.80;99.50;;;;;;4906389;29;20044;-84
2022/08/08 05:20:51;;;;;;;4.22;3.00;;;15.90;98.60;;;;;;4938240;29;20031;-84
2022/08/08 05:23:23;;;;;;;3.30;2.97;;;16.00;98.10;;;;;;4944236;29;20027;-85
2022/08/08 05:25:51;;;;;;;2.75;2.55;;;16.00;98.00;;;;;;4934908;29;20096;-84
2022/08/08 05:28:17;;;;;;;3.22;2.67;;;16.10;97.20;;;;;;4934082;29;20040;-84
2022/08/08 05:30:43;;;;;;;4.70;2.53;;;16.20;96.90;;;;;;4908341;29;20127;-84
2022/08/08 05:33:09;;;;;;;5.65;3.00;;;16.30;96.40;;;;;;4905426;29;20162;-81
2022/08/08 05:35:35;;;;;;;3.45;3.13;;;16.30;96.10;;;;;;4924395;29;20064;-83
2022/08/08 05:38:04;;;;;;;3.83;3.05;;;16.40;96.20;;;;;;4935819;29;20067;-83
2022/08/08 05:40:32;;;;;;;3.90;3.20;;;16.40;96.10;;;;;;4941448;29;20037;-83
2022/08/08 05:43:05;;;;;;;5.18;2.60;;;16.50;95.80;;;;;;4946840;29;20078;-82
2022/08/08 05:45:35;;;;;;;2.92;2.72;;;16.60;95.90;;;;;;4930936;29;20043;-82
2022/08/08 05:48:01;;;;;;;4.32;3.92;;;16.70;95.50;;;;;;4927862;29;20040;-83
2022/08/08 05:50:29;;;;;;;5.47;3.25;;;16.80;94.80;;;;;;4941295;29;20050;-83
2022/08/08 05:52:56;;;;;;;4.43;2.58;;;16.80;94.70;;;;;;4930622;29;20019;-84
2022/08/08 05:55:22;;;;;;;2.40;2.20;;;16.90;94.20;;;;;;4943729;29;20098;-82
2022/08/08 05:57:51;;;;;;;3.40;1.90;;;17.00;93.70;;;;;;4962310;28;20047;-84
2022/08/08 06:00:17;;;;;;;3.50;2.20;;;17.20;93.50;;;;;;4967693;29;20107;-86
2022/08/08 06:05:33;;;;;;;3.80;2.47;;;17.50;92.10;;;;;;4959461;29;20180;-84
2022/08/08 06:08:00;;;;;;;3.67;2.33;;;17.70;91.40;;;;;;4957975;29;20020;-86
2022/08/08 06:10:31;;;;;;;4.35;2.88;;;17.80;91.10;;;;;;4943811;28;20038;-86
2022/08/08 06:12:57;;;;;;;2.53;2.13;;;18.70;90.70;;;;;;4960627;28;20067;-87
2022/08/08 06:15:23;;;;;;;2.72;2.35;;;21.90;83.20;;;;;;4960946;28;20023;-86
2022/08/08 06:17:51;;;;;;;2.75;1.88;;;24.60;70.20;;;;;;4959347;28;20091;-85
2022/08/08 06:20:16;;;;;;;1.95;1.58;;;26.70;61.70;;;;;;4934770;28;20036;-83
2022/08/08 06:22:43;;;;;;;2.58;1.80;;;28.70;57.80;;;;;;4942431;29;20064;-83
2022/08/08 06:25:09;;;;;;;3.42;1.75;;;30.10;53.30;;;;;;4926808;29;20040;-82
2022/08/08 06:27:55;;;;;;;5.68;2.80;;;;;;;;;;4949437;29;20034;-83
2022/08/08 06:30:51;;;;;;;3.53;2.22;;;31.10;46.40;;;;;;4951751;29;20038;-84
2022/08/08 06:33:45;;;;;;;1.65;1.52;;;31.00;47.10;;;;;;4940692;29;20043;-84
2022/08/08 06:36:39;;;;;;;2.22;2.03;;;31.20;47.50;;;;;;4931956;29;20042;-84
2022/08/08 06:39:33;;;;;;;2.00;1.70;;;31.10;47.00;;;;;;4953117;29;20181;-86
2022/08/08 06:42:37;;;;;;;4.15;1.95;;;30.90;47.90;;;;;;4926217;29;20205;-84
2022/08/08 06:45:06;;;;;;;2.80;2.42;;;31.40;46.90;;;;;;4947087;29;20043;-86
2022/08/08 06:47:54;;;;;;;3.70;3.35;;;31.00;46.00;;;;;;4928502;29;20106;-86
2022/08/08 06:50:22;;;;;;;3.55;2.50;;;30.50;46.40;;;;;;4945359;29;20043;-85
2022/08/08 06:53:55;;;;;;;2.83;1.88;;;30.40;47.70;;;;;;4951033;29;20036;-85
2022/08/08 06:56:22;;;;;;;1.77;1.67;;;31.00;47.70;;;;;;4871256;29;20536;-85
2022/08/08 06:58:48;;;;;;;3.70;2.80;;;31.80;46.30;;;;;;4881950;29;20040;-82
2022/08/08 07:01:16;;;;;;;1.98;1.77;;;31.60;45.40;;;;;;4921390;29;20066;-84
2022/08/08 07:03:55;;;;;;;1.50;1.40;;;31.10;46.50;;;;;;4935939;29;20035;-84
2022/08/08 07:06:26;;;;;;;1.60;1.20;;;31.20;47.10;;;;;;4941145;29;20441;-84
2022/08/08 07:09:02;;;;;;;1.92;1.83;;;30.40;46.50;;;;;;4938790;29;20512;-86
2022/08/08 07:11:29;;;;;;;4.85;2.28;;;27.90;49.20;;;;;;4923473;29;20135;-86
2022/08/08 07:14:03;;;;;;;6.25;3.17;;;25.60;53.30;;;;;;4939209;29;20032;-86
2022/08/08 07:16:47;;;;;;;4.45;2.40;;;23.80;57.40;;;;;;4924513;29;20051;-85
2022/08/08 07:19:49;;;;;;;5.43;2.63;;;22.50;62.00;;;;;;4925640;29;20038;-86
2022/08/08 07:22:22;;;;;;;3.72;2.80;;;21.50;65.60;;;;;;4946287;29;20023;-85
2022/08/08 07:24:57;;;;;;;3.05;2.13;;;20.90;68.30;;;;;;4942407;29;20101;-85
2022/08/08 07:27:26;;;;;;;2.53;2.30;;;20.70;69.30;;;;;;4943595;29;20102;-84
2022/08/08 07:29:52;;;;;;;2.40;2.17;;;20.70;69.70;;;;;;4959887;29;20108;-83
2022/08/08 07:32:18;;;;;;;6.28;3.00;;;20.60;69.90;;;;;;4929246;29;20032;-85
2022/08/08 07:34:44;;;;;;;4.18;2.55;;;20.50;70.10;;;;;;4940573;29;20517;-83
2022/08/08 07:37:12;;;;;;;5.63;2.60;;;20.40;70.50;;;;;;4925010;29;20024;-86
2022/08/08 07:39:49;;;;;;;6.57;2.88;;;20.50;71.10;;;;;;4926426;29;20083;-84
2022/08/08 07:42:16;;;;;;;4.53;2.90;;;20.50;71.10;;;;;;4947007;29;20019;-84
2022/08/08 07:44:43;;;;;;;3.28;2.30;;;20.50;71.10;;;;;;4944688;29;20034;-84
2022/08/08 07:47:09;;;;;;;4.40;1.95;;;20.50;70.80;;;;;;4943408;29;20020;-84
2022/08/08 07:49:36;;;;;;;5.45;2.40;;;20.60;71.00;;;;;;4923426;29;20035;-84
2022/08/08 07:52:03;;;;;;;4.13;2.63;;;20.70;70.80;;;;;;4942259;29;20035;-85
2022/08/08 07:54:32;;;;;;;3.15;2.30;;;20.80;70.70;;;;;;4949966;29;20054;-85
2022/08/08 07:57:01;;;;;;;3.83;2.25;;;20.90;70.50;;;;;;4944225;29;20033;-84
2022/08/08 07:59:47;;;;;;;3.45;1.88;;;21.00;69.60;;;;;;4929361;29;20048;-86
2022/08/08 08:02:50;;;;;;;3.80;2.28;;;21.00;69.60;;;;;;4940271;29;20036;-85
2022/08/08 08:06:18;;;;;;;2.67;2.22;;;21.00;69.80;;;;;;4944634;29;20031;-84
2022/08/08 08:09:09;;;;;;;2.20;1.98;;;21.10;70.00;;;;;;4930867;29;20082;-85
2022/08/08 08:11:58;;;;;;;3.28;2.38;;;21.20;70.00;;;;;;4937325;29;20571;-84
2022/08/08 08:14:54;;;;;;;2.00;1.75;;;21.30;69.90;;;;;;4940297;29;20621;-86
2022/08/08 08:25:00;;;;;;;2.22;2.10;;;22.10;68.00;;;;;;4922014;29;20047;-86
2022/08/08 08:28:05;;;;;;;2.53;1.65;;;22.40;65.90;;;;;;4916998;29;20132;-87
2022/08/08 08:38:10;;;;;;;1.98;1.88;;;23.00;63.40;;;;;;4923325;29;20080;-86
2022/08/08 08:55:56;;;;;;;1.35;1.25;;;22.60;62.60;;;;;;5974150;23;20163;-81
2022/08/08 08:58:34;;;;;;;1.58;1.48;;;22.50;63.20;;;;;;4957986;28;20055;-82
2022/08/08 09:01:03;;;;;;;3.35;1.83;;;22.60;62.80;;;;;;4940034;29;20055;-84
2022/08/08 09:03:30;;;;;;;1.52;1.42;;;22.70;61.90;;;;;;4946371;29;20437;-84
2022/08/08 09:10:31;;;;;;;3.72;1.55;;;23.30;59.70;;;;;;4994143;28;20034;-85
2022/08/08 09:17:30;;;;;;;;;;;;;;;;;;;;;
2022/08/08 09:30:08;;;;;;;2.80;1.50;;;23.70;55.60;;;;;;4906800;23;20067;-82
2022/08/08 09:32:41;;;;;;;4.72;1.90;;;23.90;56.60;;;;;;4970651;29;20020;-82
2022/08/08 09:35:10;;;;;;;3.80;1.45;;;24.20;56.00;;;;;;4953726;28;20050;-82
2022/08/08 09:38:00;;;;;;;3.88;1.30;;;24.40;55.30;;;;;;4969956;29;20031;-82
2022/08/08 09:40:28;;;;;;;4.03;1.85;;;24.60;55.50;;;;;;4959853;29;20435;-82
2022/08/08 09:43:30;;;;;;;4.40;1.83;;;24.70;54.40;;;;;;4968907;28;20031;-83
2022/08/08 09:46:00;;;;;;;5.38;1.50;;;24.80;54.70;;;;;;4950748;29;20088;-81
2022/08/08 09:48:34;;;;;;;1.40;1.30;;;24.80;54.60;;;;;;4951986;29;20023;-82
2022/08/08 09:51:01;;;;;;;2.33;1.63;;;25.00;54.80;;;;;;4968998;29;20035;-80
2022/08/08 09:53:40;;;;;;;4.35;1.80;;;25.20;52.60;;;;;;4972246;29;20035;-82
2022/08/08 09:56:08;;;;;;;2.95;1.70;;;24.70;54.10;;;;;;4968767;29;20019;-80
2022/08/08 09:58:39;;;;;;;4.03;1.35;;;24.30;56.30;;;;;;4969156;28;20046;-82
2022/08/08 10:01:09;;;;;;;1.42;1.33;;;24.60;56.00;;;;;;4969685;29;20031;-82
2022/08/08 10:03:36;;;;;;;1.52;1.42;;;25.10;55.10;;;;;;4950402;29;20050;-82
2022/08/08 10:06:16;;;;;;;2.40;1.55;;;25.10;53.90;;;;;;4967546;29;20046;-82
2022/08/08 10:08:47;;;;;;;3.80;1.55;;;25.00;53.20;;;;;;4952972;29;20079;-81
2022/08/08 10:11:23;;;;;;;2.00;1.40;;;24.70;53.90;;;;;;4975696;29;20035;-80
2022/08/08 10:14:02;;;;;;;1.45;1.30;;;24.60;54.50;;;;;;4971089;29;20110;-82
2022/08/08 10:16:39;;;;;;;1.92;1.73;;;24.80;54.10;;;;;;4968672;29;20023;-82
2022/08/08 10:19:07;;;;;;;2.50;1.58;;;25.10;53.40;;;;;;4967191;29;20028;-81
2022/08/08 10:21:34;;;;;;;3.13;1.63;;;25.00;54.30;;;;;;4969236;28;20159;-82
2022/08/08 10:24:11;;;;;;;1.90;1.60;;;25.30;54.10;;;;;;4969386;29;20023;-81
2022/08/08 10:26:51;;;;;;;2.53;1.80;;;25.40;53.20;;;;;;4951915;29;20027;-82
2022/08/08 10:29:43;;;;;;;3.47;1.55;;;25.10;53.90;;;;;;4969338;29;20047;-82
2022/08/08 10:34:59;;;;;;;2.38;1.30;;;25.00;53.80;;;;;;4948766;29;20087;-82
2022/08/08 10:37:32;;;;;;;2.10;1.45;;;25.00;53.60;;;;;;4950673;29;20047;-80
2022/08/08 10:40:00;;;;;;;5.20;1.85;;;25.00;53.20;;;;;;4950343;29;20023;-80
2022/08/08 10:42:34;;;;;;;4.38;2.13;;;24.80;53.80;;;;;;4967612;29;20030;-82
2022/08/08 10:45:04;;;;;;;4.53;1.63;;;24.60;55.40;;;;;;4966328;29;20027;-81
2022/08/08 10:47:29;;;;;;;3.13;2.28;;;24.40;55.90;;;;;;4967751;29;20023;-81
2022/08/08 10:49:58;;;;;;;2.90;1.67;;;24.40;56.40;;;;;;4951133;29;20071;-81
2022/08/08 10:52:29;;;;;;;3.17;1.80;;;24.40;56.90;;;;;;4968596;29;20032;-81
2022/08/08 10:55:06;;;;;;;2.22;1.60;;;24.60;56.60;;;;;;4968756;29;20039;-80
2022/08/08 10:57:50;;;;;;;4.47;1.70;;;24.60;56.70;;;;;;4965782;29;20054;-82
2022/08/08 11:00:24;;;;;;;2.97;2.25;;;24.80;55.50;;;;;;4965394;29;20031;-81
2022/08/08 11:02:50;;;;;;;2.40;1.90;;;24.70;55.40;;;;;;4961370;29;20032;-81
2022/08/08 11:05:17;;;;;;;3.03;1.60;;;24.90;55.50;;;;;;4951183;29;20040;-82
2022/08/08 11:07:53;;;;;;;2.13;1.92;;;25.30;54.40;;;;;;4950209;28;20027;-82
2022/08/08 11:10:21;;;;;;;4.85;1.90;;;25.60;52.80;;;;;;4964423;29;20035;-82
2022/08/08 11:12:55;;;;;;;1.63;1.52;;;25.40;54.00;;;;;;4967831;29;20135;-84
2022/08/08 11:15:23;;;;;;;3.15;1.90;;;25.50;53.00;;;;;;4982742;28;20104;-85
2022/08/08 11:17:50;;;;;;;2.10;1.77;;;25.30;53.00;;;;;;4977903;28;20011;-84
2022/08/08 11:20:21;;;;;;;2.13;1.90;;;25.00;54.60;;;;;;4976665;29;20034;-82
2022/08/08 11:22:54;;;;;;;1.58;1.48;;;25.20;53.70;;;;;;4975958;28;20011;-83
2022/08/08 11:25:24;;;;;;;5.80;1.75;;;25.50;54.20;;;;;;4976964;29;20015;-82
2022/08/08 11:27:53;;;;;;;2.30;1.55;;;25.70;53.00;;;;;;4976941;29;20023;-83
2022/08/08 11:30:26;;;;;;;1.98;1.80;;;25.90;52.30;;;;;;4976335;28;20050;-85
2022/08/08 11:32:54;;;;;;;3.00;1.73;;;26.00;52.50;;;;;;4967622;29;20023;-84
2022/08/08 11:35:21;;;;;;;2.33;1.50;;;26.20;52.50;;;;;;4952361;29;20032;-84
2022/08/08 11:37:47;;;;;;;1.60;1.50;;;26.40;50.70;;;;;;4951520;28;20043;-85
2022/08/08 11:40:14;;;;;;;2.10;1.42;;;26.40;51.20;;;;;;4950092;29;20055;-85
2022/08/08 11:42:44;;;;;;;2.30;1.50;;;26.50;50.50;;;;;;4968552;29;20081;-86
2022/08/08 11:45:11;;;;;;;2.78;1.40;;;26.60;49.50;;;;;;4970574;29;20031;-83
2022/08/08 11:47:39;;;;;;;7.53;2.10;;;26.50;50.00;;;;;;4970633;28;20023;-85
2022/08/08 11:50:12;;;;;;;1.60;1.50;;;26.70;49.60;;;;;;4961114;29;20036;-85
2022/08/08 11:52:39;;;;;;;2.95;1.40;;;26.90;49.60;;;;;;4933363;29;20020;-84
2022/08/08 11:55:18;;;;;;;2.42;1.48;;;27.20;48.80;;;;;;4933250;29;20047;-85
2022/08/08 11:57:45;;;;;;;3.42;1.80;;;27.20;48.40;;;;;;4951865;29;20023;-86
2022/08/08 12:00:16;;;;;;;1.90;1.50;;;26.90;47.90;;;;;;4936572;29;20039;-84
2022/08/08 12:02:53;;;;;;;3.40;1.58;;;26.10;49.60;;;;;;4939244;29;20015;-83
2022/08/08 12:05:30;;;;;;;2.03;1.23;;;25.60;50.70;;;;;;4948829;29;20118;-80
2022/08/08 12:07:56;;;;;;;3.83;1.40;;;25.50;50.90;;;;;;4948689;29;20039;-82
2022/08/08 12:10:29;;;;;;;2.90;1.55;;;25.40;50.90;;;;;;4952735;29;20039;-83
2022/08/08 12:13:02;;;;;;;3.08;1.60;;;25.30;50.60;;;;;;4969213;29;20111;-81
2022/08/08 12:15:34;;;;;;;1.58;1.45;;;25.30;50.60;;;;;;4966725;28;20015;-81
2022/08/08 12:18:11;;;;;;;2.20;1.60;;;25.00;51.30;;;;;;4966741;29;20077;-81
2022/08/08 12:20:38;;;;;;;1.60;1.30;;;24.90;51.70;;;;;;4949604;29;20035;-83
2022/08/08 12:23:03;;;;;;;3.08;2.20;;;25.40;51.50;;;;;;4966058;29;20036;-81
2022/08/08 12:25:32;;;;;;;6.07;1.50;;;25.80;49.70;;;;;;4967071;29;20032;-80
2022/08/08 12:28:15;;;;;;;1.55;1.45;;;25.80;50.10;;;;;;4967281;29;20031;-81
2022/08/08 12:30:44;;;;;;;5.80;1.73;;;26.10;50.30;;;;;;4967470;28;20031;-85
2022/08/08 12:33:24;;;;;;;2.85;1.52;;;26.10;49.90;;;;;;4958850;29;20050;-82
2022/08/08 12:35:50;;;;;;;1.67;1.00;;;25.80;50.50;;;;;;4965690;29;20082;-82
2022/08/08 12:38:16;;;;;;;1.40;1.30;;;25.50;51.20;;;;;;4965823;29;20389;-82
2022/08/08 12:40:52;;;;;;;1.45;1.35;;;25.30;51.30;;;;;;4947318;29;20024;-81
2022/08/08 12:43:31;;;;;;;5.10;1.85;;;25.20;51.90;;;;;;4966726;29;20027;-81
2022/08/08 12:45:57;;;;;;;1.23;1.20;;;25.60;51.70;;;;;;4967367;29;20027;-82
2022/08/08 12:48:24;;;;;;;1.58;1.27;;;26.10;50.70;;;;;;4968062;29;20038;-81
2022/08/08 12:50:55;;;;;;;2.30;1.40;;;26.70;49.20;;;;;;4969645;29;20054;-82
2022/08/08 12:53:29;;;;;;;1.30;1.20;;;27.00;48.70;;;;;;4969463;29;20028;-81
2022/08/08 12:55:58;;;;;;;1.02;1.00;;;27.00;48.60;;;;;;4974774;29;20038;-81
2022/08/08 12:58:25;;;;;;;2.00;1.23;;;26.70;49.30;;;;;;4970002;28;20051;-82
2022/08/08 13:00:52;;;;;;;1.48;1.20;;;26.90;49.40;;;;;;4965445;29;20046;-82
2022/08/08 13:03:28;;;;;;;4.78;1.85;;;27.20;48.90;;;;;;4973442;29;20027;-82
2022/08/08 13:06:08;;;;;;;2.63;1.63;;;27.50;47.40;;;;;;4974087;29;20031;-81
2022/08/08 13:08:44;;;;;;;2.05;1.38;;;27.20;47.50;;;;;;4974469;29;20027;-81
2022/08/08 13:11:24;;;;;;;2.10;1.75;;;26.60;48.50;;;;;;4957712;29;20039;-82
2022/08/08 13:14:02;;;;;;;1.95;1.40;;;26.30;49.80;;;;;;4973973;29;20083;-81
2022/08/08 13:16:30;;;;;;;1.50;1.40;;;26.50;49.10;;;;;;4974634;29;20027;-81
2022/08/08 13:18:58;;;;;;;1.35;1.20;;;26.90;48.80;;;;;;4972400;29;20456;-81
2022/08/08 13:21:23;;;;;;;1.58;1.48;;;27.60;49.10;;;;;;4973870;29;20098;-82
2022/08/08 13:23:50;;;;;;;3.53;1.20;;;28.40;46.70;;;;;;4971415;29;20500;-81
2022/08/08 13:26:15;;;;;;;4.25;1.50;;;28.70;44.90;;;;;;4967569;29;20027;-81
2022/08/08 13:28:41;;;;;;;1.48;1.20;;;28.40;45.30;;;;;;4952730;29;20495;-81
2022/08/08 13:31:11;;;;;;;2.58;1.70;;;28.10;45.60;;;;;;4969532;28;20117;-81
2022/08/08 13:33:39;;;;;;;2.85;1.60;;;27.90;45.60;;;;;;4970243;29;20019;-82
2022/08/08 13:36:06;;;;;;;1.40;1.30;;;27.90;46.50;;;;;;4969693;29;20023;-81
2022/08/08 13:38:35;;;;;;;2.00;1.67;;;27.70;45.30;;;;;;4953292;29;20034;-81
2022/08/08 13:41:01;;;;;;;1.48;1.25;;;27.70;46.20;;;;;;4954348;28;20046;-82
2022/08/08 13:43:27;;;;;;;1.23;1.10;;;27.70;46.20;;;;;;4933504;29;20028;-81
2022/08/08 13:45:52;;;;;;;2.53;1.63;;;27.80;46.20;;;;;;4952341;29;20081;-82
2022/08/08 13:48:18;;;;;;;2.15;1.58;;;27.90;45.80;;;;;;4951770;29;20023;-83
2022/08/08 13:50:49;;;;;;;2.15;1.40;;;28.00;45.20;;;;;;4960008;29;20039;-82
2022/08/08 13:53:28;;;;;;;4.00;1.55;;;28.10;45.40;;;;;;4968858;29;20187;-80
2022/08/08 13:56:03;;;;;;;1.90;1.45;;;28.20;44.70;;;;;;4968462;29;20023;-82
2022/08/08 13:58:29;;;;;;;1.50;1.40;;;28.10;44.80;;;;;;4945885;29;20027;-82
2022/08/08 14:00:55;;;;;;;5.03;1.65;;;28.00;45.50;;;;;;4950207;29;20042;-81
2022/08/08 14:03:28;;;;;;;2.53;1.50;;;27.90;44.80;;;;;;4960621;29;20091;-81
2022/08/08 14:06:07;;;;;;;3.65;1.40;;;27.80;45.20;;;;;;4952420;29;20476;-82
2022/08/08 14:08:45;;;;;;;2.13;1.42;;;27.80;45.80;;;;;;4971333;29;20091;-81
2022/08/08 14:11:22;;;;;;;2.47;1.42;;;27.90;45.90;;;;;;4967429;28;20473;-82
2022/08/08 14:13:49;;;;;;;4.00;1.60;;;28.30;45.50;;;;;;4969227;29;20059;-82
2022/08/08 14:16:16;;;;;;;2.50;1.20;;;28.30;44.40;;;;;;4953088;29;20031;-80
2022/08/08 14:18:57;;;;;;;1.30;1.08;;;28.10;44.30;;;;;;4970356;29;20038;-80
2022/08/08 14:21:41;;;;;;;2.47;1.80;;;27.90;44.30;;;;;;4970136;29;20027;-81
2022/08/08 14:24:07;;;;;;;1.33;1.23;;;27.70;45.30;;;;;;4970617;29;20095;-80
2022/08/08 14:26:40;;;;;;;1.70;1.33;;;27.90;45.50;;;;;;4973073;29;20024;-81
2022/08/08 14:29:06;;;;;;;3.60;1.80;;;28.00;44.60;;;;;;4974107;29;20016;-80
2022/08/08 14:31:32;;;;;;;1.50;1.40;;;28.00;44.90;;;;;;4973912;28;20032;-82
2022/08/08 14:33:58;;;;;;;2.03;1.35;;;28.00;44.40;;;;;;4957502;28;20043;-81
2022/08/08 14:36:33;;;;;;;3.30;1.10;;;27.90;44.80;;;;;;4978783;28;20043;-82
2022/08/08 14:38:59;;;;;;;1.45;1.20;;;27.90;45.30;;;;;;4978794;29;20023;-81
2022/08/08 14:41:26;;;;;;;2.92;1.20;;;28.00;44.60;;;;;;4959127;29;20038;-80
2022/08/08 14:43:53;;;;;;;1.23;1.13;;;27.90;44.70;;;;;;4973574;29;20023;-77
2022/08/08 14:49:11;;;;;;;1.73;1.48;;;28.20;45.10;;;;;;4976710;28;20059;-88
2022/08/08 14:51:42;;;;;;;1.25;1.17;;;28.10;44.80;;;;;;4983141;28;20106;-88
2022/08/08 14:54:09;;;;;;;3.30;1.30;;;28.10;44.70;;;;;;4963039;29;20027;-87
2022/08/08 14:56:37;;;;;;;1.40;1.30;;;28.10;44.40;;;;;;4959527;29;20158;-87
2022/08/08 14:59:03;;;;;;;3.28;1.48;;;28.00;44.60;;;;;;4972144;28;20034;-87
2022/08/08 15:01:32;;;;;;;2.60;1.35;;;27.90;44.50;;;;;;4961632;28;20026;-87
2022/08/08 15:03:59;;;;;;;1.42;1.33;;;27.70;44.70;;;;;;4970111;28;20037;-86
2022/08/08 15:06:26;;;;;;;1.70;1.60;;;27.40;45.60;;;;;;4970277;28;20085;-86
2022/08/08 15:08:52;;;;;;;1.23;1.13;;;27.40;44.80;;;;;;4962090;29;20027;-86
2022/08/08 15:11:18;;;;;;;2.75;1.40;;;27.40;45.70;;;;;;4949071;29;20036;-86
2022/08/08 15:13:46;;;;;;;0.90;0.90;;;27.40;45.50;;;;;;4961433;28;20035;-87
2022/08/08 15:16:17;;;;;;;1.65;1.50;;;27.60;45.30;;;;;;4971851;28;20033;-87
2022/08/08 15:19:09;;;;;;;1.10;1.10;;;27.70;45.00;;;;;;4953543;29;20030;-88
2022/08/08 15:21:35;;;;;;;1.05;1.02;;;27.60;44.80;;;;;;4955849;29;20011;-86
2022/08/08 15:24:00;;;;;;;1.77;0.98;;;27.50;45.00;;;;;;4956823;29;20035;-86
2022/08/08 15:26:59;;;;;;;;;;;;;;;;;;;;;
2022/08/08 15:29:25;;;;;;;1.05;1.02;;;27.60;45.60;;;;;;4973641;28;20046;-86
2022/08/08 15:31:58;;;;;;;1.75;1.30;;;27.60;44.80;;;;;;4994229;28;20034;-86
2022/08/08 15:34:26;;;;;;;1.83;1.33;;;27.40;45.50;;;;;;4974996;28;20038;-86
2022/08/08 15:36:55;;;;;;;2.67;1.20;;;27.30;45.30;;;;;;4969051;28;20034;-86
2022/08/08 15:39:20;;;;;;;3.60;1.23;;;27.20;45.30;;;;;;4960898;28;20102;-86
2022/08/08 15:41:46;;;;;;;1.25;1.15;;;27.00;45.60;;;;;;4961238;28;20069;-89
2022/08/08 15:44:12;;;;;;;1.30;1.20;;;27.00;45.80;;;;;;4962379;28;20023;-87
2022/08/08 15:46:44;;;;;;;1.10;1.10;;;27.10;45.80;;;;;;4959815;28;20443;-86
2022/08/08 15:49:12;;;;;;;;;;;27.20;46.10;;;;;;4942305;29;20037;-87
2022/08/08 15:52:04;;;;;;;4.50;0.98;;;27.10;46.70;;;;;;4940905;29;19914;-87
2022/08/08 15:54:30;;;;;;;2.55;1.10;;;27.00;46.10;;;;;;4958605;29;20027;-87
2022/08/08 15:57:05;;;;;;;2.38;1.05;;;26.90;46.50;;;;;;4952986;29;20027;-87
2022/08/08 15:59:33;;;;;;;3.17;1.52;;;26.80;45.80;;;;;;4959729;28;20110;-86
2022/08/08 16:01:59;;;;;;;1.50;1.30;;;26.70;46.50;;;;;;4959914;29;20015;-86
2022/08/08 16:04:26;;;;;;;2.28;1.40;;;26.60;46.50;;;;;;4977135;28;20051;-86
2022/08/08 16:07:01;;;;;;;4.03;1.20;;;26.50;46.50;;;;;;4976411;29;20027;-85
2022/08/08 16:09:28;;;;;;;1.33;1.20;;;26.50;46.40;;;;;;4976481;29;20416;-85
2022/08/08 16:12:00;;;;;;;1.95;1.10;;;26.50;46.70;;;;;;4976435;28;20043;-87
2022/08/08 16:14:26;;;;;;;2.88;1.17;;;26.50;46.50;;;;;;4959967;29;20024;-85
2022/08/08 16:16:53;;;;;;;4.25;1.58;;;26.50;47.00;;;;;;4976360;28;20047;-86
2022/08/08 16:19:34;;;;;;;1.65;1.20;;;26.50;47.10;;;;;;4959864;28;20030;-86
2022/08/08 16:22:00;;;;;;;1.55;1.27;;;26.50;47.00;;;;;;4976753;28;20039;-84
2022/08/08 16:24:25;;;;;;;1.40;1.30;;;26.40;46.80;;;;;;4976903;28;20047;-88
2022/08/08 16:26:51;;;;;;;3.53;1.27;;;26.20;47.20;;;;;;4959018;29;20550;-85
2022/08/08 16:29:18;;;;;;;1.77;0.90;;;26.20;47.60;;;;;;4976036;29;20107;-83
2022/08/08 16:31:46;;;;;;;1.13;1.00;;;26.20;47.60;;;;;;4975428;29;20066;-84
2022/08/08 16:34:14;;;;;;;1.25;1.15;;;26.10;47.80;;;;;;4961865;28;20087;-85
2022/08/08 16:36:41;;;;;;;2.33;1.10;;;26.10;48.20;;;;;;4963217;28;20038;-85
2022/08/08 16:39:08;;;;;;;1.13;1.13;;;26.00;48.20;;;;;;4980357;28;20023;-86
2022/08/08 16:41:39;;;;;;;1.73;1.20;;;25.80;48.40;;;;;;4967677;28;20058;-85
2022/08/08 16:44:11;;;;;;;;;;;25.60;48.60;;;;;;4968525;28;20082;-87
2022/08/08 16:46:37;;;;;;;1.15;1.05;;;25.60;48.80;;;;;;4982478;28;19914;-84
2022/08/08 16:49:03;;;;;;;2.67;1.50;;;25.50;47.80;;;;;;4992877;28;20070;-84
2022/08/08 16:51:28;;;;;;;4.60;1.48;;;25.30;48.50;;;;;;5000154;28;20082;-86
2022/08/08 16:53:56;;;;;;;3.20;1.40;;;25.30;49.10;;;;;;5000520;28;20011;-84
2022/08/08 16:56:22;;;;;;;0.90;0.90;;;25.20;49.20;;;;;;5000586;28;20034;-85
2022/08/08 16:58:48;;;;;;;1.30;1.20;;;25.10;49.40;;;;;;4982934;28;20035;-85
2022/08/08 17:01:14;;;;;;;2.22;1.52;;;25.00;49.70;;;;;;4983357;28;20042;-84
2022/08/08 17:03:47;;;;;;;1.30;1.20;;;25.00;49.20;;;;;;5000310;28;20061;-85
2022/08/08 17:06:13;;;;;;;3.72;1.42;;;25.00;49.70;;;;;;4982187;28;20035;-84
2022/08/08 17:08:39;;;;;;;2.25;1.23;;;25.00;50.20;;;;;;4980643;28;20038;-83
2022/08/08 17:11:05;;;;;;;2.95;1.30;;;24.90;50.70;;;;;;4999199;28;20039;-87
2022/08/08 17:13:32;;;;;;;0.85;0.85;;;24.80;50.80;;;;;;4972919;29;20035;-86
2022/08/08 17:15:58;;;;;;;3.03;1.20;;;24.80;51.10;;;;;;4957198;29;20463;-85
2022/08/08 17:18:24;;;;;;;2.60;1.13;;;24.70;51.10;;;;;;4953128;29;20023;-84
2022/08/08 17:20:49;;;;;;;1.30;1.20;;;24.70;50.70;;;;;;4971264;28;20106;-84
2022/08/08 17:23:21;;;;;;;3.63;1.33;;;24.60;50.70;;;;;;4990324;28;20026;-85
2022/08/08 17:25:55;;;;;;;8.40;1.58;;;24.50;50.50;;;;;;4955187;29;20031;-84
2022/08/08 17:28:21;;;;;;;1.00;1.00;;;24.40;51.00;;;;;;4953904;29;20388;-85
2022/08/08 17:30:47;;;;;;;1.15;0.95;;;24.40;51.40;;;;;;4957316;28;20031;-85
2022/08/08 17:33:13;;;;;;;1.83;1.23;;;;;;;;;;4971714;28;20502;-84
2022/08/08 17:35:38;;;;;;;2.63;1.55;;;24.20;51.40;;;;;;4967419;29;20020;-85
2022/08/08 17:38:05;;;;;;;1.67;1.40;;;24.20;52.10;;;;;;4963311;29;20094;-81
2022/08/08 17:40:31;;;;;;;1.40;1.27;;;24.10;52.30;;;;;;4931114;28;20090;-80
2022/08/08 17:42:56;;;;;;;2.90;1.58;;;24.10;52.60;;;;;;4978147;28;20030;-81
2022/08/08 17:45:22;;;;;;;2.08;1.38;;;24.00;52.90;;;;;;4979894;28;20023;-83
2022/08/08 17:47:48;;;;;;;1.95;1.10;;;24.30;53.10;;;;;;4981099;28;20041;-82
2022/08/08 17:50:14;;;;;;;2.38;1.50;;;25.40;51.80;;;;;;4947327;29;21963;-81
2022/08/08 17:52:39;;;;;;;1.42;1.30;;;26.00;49.60;;;;;;4981274;28;20027;-83
2022/08/08 17:55:06;;;;;;;2.63;1.40;;;25.70;49.40;;;;;;4989000;28;20030;-83
2022/08/08 17:57:32;;;;;;;1.65;1.20;;;25.10;50.20;;;;;;4970950;28;20023;-82